Aviation Digital Data Service (ADDS)

Output produced by METARs form (2232 UTC 24 November 2014)
found at http://aviationweather.gov/adds/metars/
 
KGSO 241742Z 2418/2518 22015G25KT P6SM SCT025 
     TEMPO 2418/2422 BKN025 
     FM242200 22009KT P6SM FEW020 SCT250 
     FM250800 30006KT P6SM BKN100 
     FM251300 35005KT P6SM BKN200